sensor_id;sensor_type;location;lat;lon;timestamp;temperature;humidity
46508;DHT22;32223;53.654;10.014;2024-03-17T00:02:23;3.30;99.90
46508;DHT22;32223;53.654;10.014;2024-03-17T00:04:49;3.30;99.90
46508;DHT22;32223;53.654;10.014;2024-03-17T00:07:14;3.30;99.90
46508;DHT22;32223;53.654;10.014;2024-03-17T00:09:40;3.20;99.90
46508;DHT22;32223;53.654;10.014;2024-03-17T00:12:07;3.20;99.90
46508;DHT22;32223;53.654;10.014;2024-03-17T00:14:33;3.20;99.90
46508;DHT22;32223;53.654;10.014;2024-03-17T00:17:00;3.20;99.90
46508;DHT22;32223;53.654;10.014;2024-03-17T00:19:25;3.10;99.90
46508;DHT22;32223;53.654;10.014;2024-03-17T00:21:51;3.10;99.90
46508;DHT22;32223;53.654;10.014;2024-03-17T00:24:17;3.00;99.90
46508;DHT22;32223;53.654;10.014;2024-03-17T00:26:43;2.90;99.90
46508;DHT22;32223;53.654;10.014;2024-03-17T00:29:08;2.90;99.90
46508;DHT22;32223;53.654;10.014;2024-03-17T00:31:34;2.90;99.90
46508;DHT22;32223;53.654;10.014;2024-03-17T00:33:59;2.90;99.90
46508;DHT22;32223;53.654;10.014;2024-03-17T00:36:25;2.90;99.90
46508;DHT22;32223;53.654;10.014;2024-03-17T00:38:51;2.90;99.90
46508;DHT22;32223;53.654;10.014;2024-03-17T00:41:19;3.00;99.90
46508;DHT22;32223;53.654;10.014;2024-03-17T00:43:45;3.00;99.90
46508;DHT22;32223;53.654;10.014;2024-03-17T00:46:10;3.00;99.90
46508;DHT22;32223;53.654;10.014;2024-03-17T00:48:37;3.10;99.90
46508;DHT22;32223;53.654;10.014;2024-03-17T00:51:03;3.20;99.90
46508;DHT22;32223;53.654;10.014;2024-03-17T00:53:28;3.30;99.90
46508;DHT22;32223;53.654;10.014;2024-03-17T00:55:55;3.30;99.90
46508;DHT22;32223;53.654;10.014;2024-03-17T00:58:24;3.40;99.90
46508;DHT22;32223;53.654;10.014;2024-03-17T01:00:49;3.50;99.90
46508;DHT22;32223;53.654;10.014;2024-03-17T01:03:16;3.50;99.90
46508;DHT22;32223;53.654;10.014;2024-03-17T01:05:42;3.50;99.90
46508;DHT22;32223;53.654;10.014;2024-03-17T01:08:13;3.50;99.90
46508;DHT22;32223;53.654;10.014;2024-03-17T01:10:40;3.60;99.90
46508;DHT22;32223;53.654;10.014;2024-03-17T01:13:09;3.50;99.90
46508;DHT22;32223;53.654;10.014;2024-03-17T01:15:39;3.60;99.90
46508;DHT22;32223;53.654;10.014;2024-03-17T01:18:05;3.50;99.90
46508;DHT22;32223;53.654;10.014;2024-03-17T01:20:36;3.40;99.90
46508;DHT22;32223;53.654;10.014;2024-03-17T01:23:03;3.40;99.90
46508;DHT22;32223;53.654;10.014;2024-03-17T01:25:29;3.40;99.90
46508;DHT22;32223;53.654;10.014;2024-03-17T01:27:58;3.40;99.90
46508;DHT22;32223;53.654;10.014;2024-03-17T01:30:23;3.30;99.90
46508;DHT22;32223;53.654;10.014;2024-03-17T01:32:51;3.30;99.90
46508;DHT22;32223;53.654;10.014;2024-03-17T01:35:16;3.30;99.90
46508;DHT22;32223;53.654;10.014;2024-03-17T01:37:42;3.30;99.90
46508;DHT22;32223;53.654;10.014;2024-03-17T01:40:08;3.30;99.90
46508;DHT22;32223;53.654;10.014;2024-03-17T01:42:36;3.30;99.90
46508;DHT22;32223;53.654;10.014;2024-03-17T01:47:44;3.30;99.90
46508;DHT22;32223;53.654;10.014;2024-03-17T01:50:10;3.30;99.90
46508;DHT22;32223;53.654;10.014;2024-03-17T01:52:39;3.30;99.90
46508;DHT22;32223;53.654;10.014;2024-03-17T01:55:05;3.30;99.90
46508;DHT22;32223;53.654;10.014;2024-03-17T01:57:31;3.20;99.90
46508;DHT22;32223;53.654;10.014;2024-03-17T01:59:57;3.20;99.90
46508;DHT22;32223;53.654;10.014;2024-03-17T02:02:23;3.20;99.90
46508;DHT22;32223;53.654;10.014;2024-03-17T02:04:49;3.10;99.90
46508;DHT22;32223;53.654;10.014;2024-03-17T02:07:15;3.10;99.90
46508;DHT22;32223;53.654;10.014;2024-03-17T02:09:41;3.00;99.90
46508;DHT22;32223;53.654;10.014;2024-03-17T02:12:08;3.00;99.90
46508;DHT22;32223;53.654;10.014;2024-03-17T02:14:35;3.00;99.90
46508;DHT22;32223;53.654;10.014;2024-03-17T02:17:00;3.00;99.90
46508;DHT22;32223;53.654;10.014;2024-03-17T02:19:26;3.00;99.90
46508;DHT22;32223;53.654;10.014;2024-03-17T02:21:51;3.00;99.90
46508;DHT22;32223;53.654;10.014;2024-03-17T02:24:17;3.00;99.90
46508;DHT22;32223;53.654;10.014;2024-03-17T02:26:42;3.00;99.90
46508;DHT22;32223;53.654;10.014;2024-03-17T02:29:08;3.10;99.90
46508;DHT22;32223;53.654;10.014;2024-03-17T02:31:33;3.10;99.90
46508;DHT22;32223;53.654;10.014;2024-03-17T02:33:59;3.10;99.90
46508;DHT22;32223;53.654;10.014;2024-03-17T02:36:24;3.10;99.90
46508;DHT22;32223;53.654;10.014;2024-03-17T02:38:50;3.10;99.90
46508;DHT22;32223;53.654;10.014;2024-03-17T02:41:43;3.00;99.90
46508;DHT22;32223;53.654;10.014;2024-03-17T02:44:08;2.90;99.90
46508;DHT22;32223;53.654;10.014;2024-03-17T02:46:34;2.90;99.90
46508;DHT22;32223;53.654;10.014;2024-03-17T02:49:00;2.80;99.90
46508;DHT22;32223;53.654;10.014;2024-03-17T02:51:26;2.70;99.90
46508;DHT22;32223;53.654;10.014;2024-03-17T02:53:51;2.60;99.90
46508;DHT22;32223;53.654;10.014;2024-03-17T02:56:17;2.60;99.90
46508;DHT22;32223;53.654;10.014;2024-03-17T02:58:45;2.50;99.90
46508;DHT22;32223;53.654;10.014;2024-03-17T03:01:17;2.50;99.90
46508;DHT22;32223;53.654;10.014;2024-03-17T03:03:44;2.40;99.90
46508;DHT22;32223;53.654;10.014;2024-03-17T03:06:10;2.40;99.90
46508;DHT22;32223;53.654;10.014;2024-03-17T03:08:40;2.30;99.90
46508;DHT22;32223;53.654;10.014;2024-03-17T03:11:08;2.30;99.90
46508;DHT22;32223;53.654;10.014;2024-03-17T03:13:37;2.20;99.90
46508;DHT22;32223;53.654;10.014;2024-03-17T03:16:03;2.20;99.90
46508;DHT22;32223;53.654;10.014;2024-03-17T03:18:29;2.20;99.90
46508;DHT22;32223;53.654;10.014;2024-03-17T03:20:54;2.20;99.90
46508;DHT22;32223;53.654;10.014;2024-03-17T03:23:20;2.10;99.90
46508;DHT22;32223;53.654;10.014;2024-03-17T03:25:46;2.10;99.90
46508;DHT22;32223;53.654;10.014;2024-03-17T03:28:13;2.00;99.90
46508;DHT22;32223;53.654;10.014;2024-03-17T03:30:38;2.00;99.90
46508;DHT22;32223;53.654;10.014;2024-03-17T03:33:04;1.90;99.90
46508;DHT22;32223;53.654;10.014;2024-03-17T03:35:30;1.90;99.90
46508;DHT22;32223;53.654;10.014;2024-03-17T03:37:56;1.80;99.90
46508;DHT22;32223;53.654;10.014;2024-03-17T03:40:22;1.80;99.90
46508;DHT22;32223;53.654;10.014;2024-03-17T03:42:47;1.80;99.90
46508;DHT22;32223;53.654;10.014;2024-03-17T03:45:13;1.80;99.90
46508;DHT22;32223;53.654;10.014;2024-03-17T03:47:40;1.80;99.90
46508;DHT22;32223;53.654;10.014;2024-03-17T03:50:10;1.80;99.90
46508;DHT22;32223;53.654;10.014;2024-03-17T03:52:37;1.80;99.90
46508;DHT22;32223;53.654;10.014;2024-03-17T03:55:04;1.80;99.90
46508;DHT22;32223;53.654;10.014;2024-03-17T03:57:30;1.80;99.90
46508;DHT22;32223;53.654;10.014;2024-03-17T03:59:57;1.90;99.90
46508;DHT22;32223;53.654;10.014;2024-03-17T04:02:23;1.90;99.90
46508;DHT22;32223;53.654;10.014;2024-03-17T04:04:50;2.00;99.90
46508;DHT22;32223;53.654;10.014;2024-03-17T04:07:16;2.10;99.90
46508;DHT22;32223;53.654;10.014;2024-03-17T04:09:42;2.20;99.90
46508;DHT22;32223;53.654;10.014;2024-03-17T04:12:07;2.20;99.90
46508;DHT22;32223;53.654;10.014;2024-03-17T04:14:33;2.20;99.90
46508;DHT22;32223;53.654;10.014;2024-03-17T04:16:59;2.30;99.90
46508;DHT22;32223;53.654;10.014;2024-03-17T04:19:24;2.40;99.90
46508;DHT22;32223;53.654;10.014;2024-03-17T04:21:51;2.40;99.90
46508;DHT22;32223;53.654;10.014;2024-03-17T04:24:16;2.50;99.90
46508;DHT22;32223;53.654;10.014;2024-03-17T04:26:42;2.50;99.90
46508;DHT22;32223;53.654;10.014;2024-03-17T04:29:08;2.60;99.90
46508;DHT22;32223;53.654;10.014;2024-03-17T04:31:34;2.60;99.90
46508;DHT22;32223;53.654;10.014;2024-03-17T04:33:59;2.60;99.90
46508;DHT22;32223;53.654;10.014;2024-03-17T04:36:25;2.70;99.90
46508;DHT22;32223;53.654;10.014;2024-03-17T04:38:50;2.70;99.90
46508;DHT22;32223;53.654;10.014;2024-03-17T04:41:19;2.80;99.90
46508;DHT22;32223;53.654;10.014;2024-03-17T04:43:45;2.80;99.90
46508;DHT22;32223;53.654;10.014;2024-03-17T04:46:11;2.80;99.90
46508;DHT22;32223;53.654;10.014;2024-03-17T04:48:37;2.80;99.90
46508;DHT22;32223;53.654;10.014;2024-03-17T04:51:03;2.70;99.90
46508;DHT22;32223;53.654;10.014;2024-03-17T04:53:30;2.80;99.90
46508;DHT22;32223;53.654;10.014;2024-03-17T04:56:04;2.80;99.90
46508;DHT22;32223;53.654;10.014;2024-03-17T04:58:33;2.90;99.90
46508;DHT22;32223;53.654;10.014;2024-03-17T05:01:08;2.90;99.90
46508;DHT22;32223;53.654;10.014;2024-03-17T05:03:34;2.80;99.90
46508;DHT22;32223;53.654;10.014;2024-03-17T05:06:03;2.80;99.90
46508;DHT22;32223;53.654;10.014;2024-03-17T05:08:30;2.80;99.90
46508;DHT22;32223;53.654;10.014;2024-03-17T05:11:03;2.90;99.90
46508;DHT22;32223;53.654;10.014;2024-03-17T05:13:34;2.90;99.90
46508;DHT22;32223;53.654;10.014;2024-03-17T05:16:00;2.90;99.90
46508;DHT22;32223;53.654;10.014;2024-03-17T05:18:26;2.80;99.90
46508;DHT22;32223;53.654;10.014;2024-03-17T05:21:02;2.70;99.90
46508;DHT22;32223;53.654;10.014;2024-03-17T05:23:36;2.60;99.90
46508;DHT22;32223;53.654;10.014;2024-03-17T05:26:03;2.50;99.90
46508;DHT22;32223;53.654;10.014;2024-03-17T05:28:30;2.40;99.90
46508;DHT22;32223;53.654;10.014;2024-03-17T05:30:56;2.30;99.90
46508;DHT22;32223;53.654;10.014;2024-03-17T05:33:23;2.20;99.90
46508;DHT22;32223;53.654;10.014;2024-03-17T05:35:53;2.20;99.90
46508;DHT22;32223;53.654;10.014;2024-03-17T05:38:23;2.10;99.90
46508;DHT22;32223;53.654;10.014;2024-03-17T05:40:58;2.10;99.90
46508;DHT22;32223;53.654;10.014;2024-03-17T05:43:34;2.10;99.90
46508;DHT22;32223;53.654;10.014;2024-03-17T05:46:02;2.00;99.90
46508;DHT22;32223;53.654;10.014;2024-03-17T05:48:28;1.90;99.90
46508;DHT22;32223;53.654;10.014;2024-03-17T05:50:54;1.90;99.90
46508;DHT22;32223;53.654;10.014;2024-03-17T05:53:21;1.90;99.90
46508;DHT22;32223;53.654;10.014;2024-03-17T05:55:48;1.90;99.90
46508;DHT22;32223;53.654;10.014;2024-03-17T05:58:14;1.80;99.90
46508;DHT22;32223;53.654;10.014;2024-03-17T06:00:39;1.90;99.90
46508;DHT22;32223;53.654;10.014;2024-03-17T06:03:06;1.90;99.90
46508;DHT22;32223;53.654;10.014;2024-03-17T06:05:38;2.00;99.90
46508;DHT22;32223;53.654;10.014;2024-03-17T06:08:06;1.90;99.90
46508;DHT22;32223;53.654;10.014;2024-03-17T06:10:34;2.00;99.90
46508;DHT22;32223;53.654;10.014;2024-03-17T06:13:00;2.00;99.90
46508;DHT22;32223;53.654;10.014;2024-03-17T06:15:26;2.00;99.90
46508;DHT22;32223;53.654;10.014;2024-03-17T06:17:53;2.00;99.90
46508;DHT22;32223;53.654;10.014;2024-03-17T06:20:25;2.00;99.90
46508;DHT22;32223;53.654;10.014;2024-03-17T06:22:54;2.10;99.90
46508;DHT22;32223;53.654;10.014;2024-03-17T06:25:20;2.10;99.90
46508;DHT22;32223;53.654;10.014;2024-03-17T06:27:52;2.20;99.90
46508;DHT22;32223;53.654;10.014;2024-03-17T06:30:18;2.30;99.90
46508;DHT22;32223;53.654;10.014;2024-03-17T06:32:45;2.30;99.90
46508;DHT22;32223;53.654;10.014;2024-03-17T06:35:14;2.40;99.90
46508;DHT22;32223;53.654;10.014;2024-03-17T06:37:50;2.50;99.90
46508;DHT22;32223;53.654;10.014;2024-03-17T06:40:17;2.50;99.90
46508;DHT22;32223;53.654;10.014;2024-03-17T06:42:43;2.60;99.90
46508;DHT22;32223;53.654;10.014;2024-03-17T06:45:09;2.70;99.90
46508;DHT22;32223;53.654;10.014;2024-03-17T06:47:38;2.80;99.90
46508;DHT22;32223;53.654;10.014;2024-03-17T06:50:04;2.90;99.90
46508;DHT22;32223;53.654;10.014;2024-03-17T06:52:30;2.80;99.90
46508;DHT22;32223;53.654;10.014;2024-03-17T06:54:59;2.90;99.90
46508;DHT22;32223;53.654;10.014;2024-03-17T06:57:25;2.90;99.90
46508;DHT22;32223;53.654;10.014;2024-03-17T06:59:51;3.00;99.90
46508;DHT22;32223;53.654;10.014;2024-03-17T07:02:16;3.10;99.90
46508;DHT22;32223;53.654;10.014;2024-03-17T07:04:44;3.20;99.90
46508;DHT22;32223;53.654;10.014;2024-03-17T07:07:09;3.30;99.90
46508;DHT22;32223;53.654;10.014;2024-03-17T07:09:35;3.30;99.90
46508;DHT22;32223;53.654;10.014;2024-03-17T07:12:01;3.40;99.90
46508;DHT22;32223;53.654;10.014;2024-03-17T07:14:27;3.50;99.90
46508;DHT22;32223;53.654;10.014;2024-03-17T07:16:53;3.60;99.90
46508;DHT22;32223;53.654;10.014;2024-03-17T07:19:19;3.70;99.90
46508;DHT22;32223;53.654;10.014;2024-03-17T07:21:44;3.80;99.90
46508;DHT22;32223;53.654;10.014;2024-03-17T07:24:10;3.90;99.90
46508;DHT22;32223;53.654;10.014;2024-03-17T07:26:35;4.00;99.90
46508;DHT22;32223;53.654;10.014;2024-03-17T07:29:01;4.10;99.90
46508;DHT22;32223;53.654;10.014;2024-03-17T07:31:26;4.20;99.90
46508;DHT22;32223;53.654;10.014;2024-03-17T07:33:52;4.40;99.90
46508;DHT22;32223;53.654;10.014;2024-03-17T07:36:17;4.40;99.90
46508;DHT22;32223;53.654;10.014;2024-03-17T07:38:44;4.60;99.90
46508;DHT22;32223;53.654;10.014;2024-03-17T07:41:09;4.70;99.90
46508;DHT22;32223;53.654;10.014;2024-03-17T07:43:36;4.80;99.90
46508;DHT22;32223;53.654;10.014;2024-03-17T07:46:07;4.90;99.90
46508;DHT22;32223;53.654;10.014;2024-03-17T07:48:34;5.00;99.90
46508;DHT22;32223;53.654;10.014;2024-03-17T07:51:08;5.10;99.90
46508;DHT22;32223;53.654;10.014;2024-03-17T07:53:35;5.20;99.90
46508;DHT22;32223;53.654;10.014;2024-03-17T07:56:12;5.30;99.90
46508;DHT22;32223;53.654;10.014;2024-03-17T07:58:39;5.30;99.90
46508;DHT22;32223;53.654;10.014;2024-03-17T08:01:09;5.40;99.90
46508;DHT22;32223;53.654;10.014;2024-03-17T08:03:39;5.50;99.90
46508;DHT22;32223;53.654;10.014;2024-03-17T08:06:06;5.60;99.90
46508;DHT22;32223;53.654;10.014;2024-03-17T08:08:32;5.70;99.90
46508;DHT22;32223;53.654;10.014;2024-03-17T08:10:59;5.80;99.90
46508;DHT22;32223;53.654;10.014;2024-03-17T08:13:26;5.90;99.90
46508;DHT22;32223;53.654;10.014;2024-03-17T08:15:58;6.00;99.90
46508;DHT22;32223;53.654;10.014;2024-03-17T08:18:24;6.00;99.90
46508;DHT22;32223;53.654;10.014;2024-03-17T08:20:50;6.10;99.90
46508;DHT22;32223;53.654;10.014;2024-03-17T08:23:15;6.20;99.90
46508;DHT22;32223;53.654;10.014;2024-03-17T08:25:41;6.30;99.90
46508;DHT22;32223;53.654;10.014;2024-03-17T08:28:07;6.30;99.90
46508;DHT22;32223;53.654;10.014;2024-03-17T08:30:33;6.40;99.90
46508;DHT22;32223;53.654;10.014;2024-03-17T08:32:59;6.40;99.90
46508;DHT22;32223;53.654;10.014;2024-03-17T08:35:25;6.50;99.90
46508;DHT22;32223;53.654;10.014;2024-03-17T08:37:51;6.70;99.90
46508;DHT22;32223;53.654;10.014;2024-03-17T08:40:19;6.70;99.90
46508;DHT22;32223;53.654;10.014;2024-03-17T08:42:45;6.80;99.90
46508;DHT22;32223;53.654;10.014;2024-03-17T08:45:11;6.90;99.90
46508;DHT22;32223;53.654;10.014;2024-03-17T08:47:38;6.90;99.90
46508;DHT22;32223;53.654;10.014;2024-03-17T08:50:04;6.90;99.90
46508;DHT22;32223;53.654;10.014;2024-03-17T08:52:30;6.90;99.90
46508;DHT22;32223;53.654;10.014;2024-03-17T08:54:57;7.00;99.90
46508;DHT22;32223;53.654;10.014;2024-03-17T08:57:23;7.00;99.90
46508;DHT22;32223;53.654;10.014;2024-03-17T08:59:48;7.00;99.90
46508;DHT22;32223;53.654;10.014;2024-03-17T09:02:14;7.10;99.90
46508;DHT22;32223;53.654;10.014;2024-03-17T09:04:42;7.20;99.90
46508;DHT22;32223;53.654;10.014;2024-03-17T09:07:08;7.30;99.90
46508;DHT22;32223;53.654;10.014;2024-03-17T09:09:33;7.40;99.90
46508;DHT22;32223;53.654;10.014;2024-03-17T09:11:59;7.50;99.90
46508;DHT22;32223;53.654;10.014;2024-03-17T09:14:25;7.40;99.90
46508;DHT22;32223;53.654;10.014;2024-03-17T09:16:50;7.20;99.90
46508;DHT22;32223;53.654;10.014;2024-03-17T09:19:16;7.10;99.90
46508;DHT22;32223;53.654;10.014;2024-03-17T09:21:42;7.00;99.90
46508;DHT22;32223;53.654;10.014;2024-03-17T09:24:08;7.10;99.90
46508;DHT22;32223;53.654;10.014;2024-03-17T09:26:34;7.10;99.90
46508;DHT22;32223;53.654;10.014;2024-03-17T09:29:02;7.20;99.90
46508;DHT22;32223;53.654;10.014;2024-03-17T09:31:28;7.30;99.90
46508;DHT22;32223;53.654;10.014;2024-03-17T09:33:54;7.50;99.90
46508;DHT22;32223;53.654;10.014;2024-03-17T09:36:19;7.40;99.90
46508;DHT22;32223;53.654;10.014;2024-03-17T09:38:45;7.40;99.90
46508;DHT22;32223;53.654;10.014;2024-03-17T09:41:20;7.30;99.90
46508;DHT22;32223;53.654;10.014;2024-03-17T09:43:47;7.30;99.90
46508;DHT22;32223;53.654;10.014;2024-03-17T09:46:14;7.40;99.90
46508;DHT22;32223;53.654;10.014;2024-03-17T09:48:41;7.50;99.90
46508;DHT22;32223;53.654;10.014;2024-03-17T09:51:20;7.60;99.90
46508;DHT22;32223;53.654;10.014;2024-03-17T09:53:46;7.50;99.90
46508;DHT22;32223;53.654;10.014;2024-03-17T09:56:17;7.70;99.90
46508;DHT22;32223;53.654;10.014;2024-03-17T09:58:47;7.80;99.90
46508;DHT22;32223;53.654;10.014;2024-03-17T10:01:13;7.90;99.90
46508;DHT22;32223;53.654;10.014;2024-03-17T10:03:43;7.90;99.90
46508;DHT22;32223;53.654;10.014;2024-03-17T10:06:15;7.90;99.90
46508;DHT22;32223;53.654;10.014;2024-03-17T10:11:12;7.80;99.90
46508;DHT22;32223;53.654;10.014;2024-03-17T10:13:39;7.80;99.90
46508;DHT22;32223;53.654;10.014;2024-03-17T10:16:05;7.90;99.90
46508;DHT22;32223;53.654;10.014;2024-03-17T10:18:31;8.00;99.90
46508;DHT22;32223;53.654;10.014;2024-03-17T10:20:57;8.10;99.90
46508;DHT22;32223;53.654;10.014;2024-03-17T10:23:24;8.20;99.90
46508;DHT22;32223;53.654;10.014;2024-03-17T10:25:50;8.40;99.90
46508;DHT22;32223;53.654;10.014;2024-03-17T10:28:17;8.50;99.90
46508;DHT22;32223;53.654;10.014;2024-03-17T10:30:57;8.60;99.90
46508;DHT22;32223;53.654;10.014;2024-03-17T10:33:24;8.70;99.90
46508;DHT22;32223;53.654;10.014;2024-03-17T10:36:02;8.70;99.90
46508;DHT22;32223;53.654;10.014;2024-03-17T10:38:30;8.80;99.90
46508;DHT22;32223;53.654;10.014;2024-03-17T10:40:56;8.90;99.90
46508;DHT22;32223;53.654;10.014;2024-03-17T10:43:22;9.20;99.90
46508;DHT22;32223;53.654;10.014;2024-03-17T10:45:54;9.40;99.90
46508;DHT22;32223;53.654;10.014;2024-03-17T10:48:28;9.60;99.90
46508;DHT22;32223;53.654;10.014;2024-03-17T10:50:58;10.00;99.90
46508;DHT22;32223;53.654;10.014;2024-03-17T10:53:24;10.10;99.90
46508;DHT22;32223;53.654;10.014;2024-03-17T10:56:04;10.00;99.90
46508;DHT22;32223;53.654;10.014;2024-03-17T10:58:35;10.00;99.90
46508;DHT22;32223;53.654;10.014;2024-03-17T11:01:02;9.90;99.90
46508;DHT22;32223;53.654;10.014;2024-03-17T11:03:33;9.90;99.90
46508;DHT22;32223;53.654;10.014;2024-03-17T11:06:00;9.70;99.90
46508;DHT22;32223;53.654;10.014;2024-03-17T11:08:26;9.90;99.90
46508;DHT22;32223;53.654;10.014;2024-03-17T11:10:53;10.00;99.90
46508;DHT22;32223;53.654;10.014;2024-03-17T11:13:28;9.90;99.90
46508;DHT22;32223;53.654;10.014;2024-03-17T11:15:55;10.00;99.90
46508;DHT22;32223;53.654;10.014;2024-03-17T11:21:02;10.40;99.90
46508;DHT22;32223;53.654;10.014;2024-03-17T11:23:33;10.40;99.90
46508;DHT22;32223;53.654;10.014;2024-03-17T11:25:59;10.50;99.90
46508;DHT22;32223;53.654;10.014;2024-03-17T11:28:44;10.40;99.90
46508;DHT22;32223;53.654;10.014;2024-03-17T11:31:32;10.40;99.90
46508;DHT22;32223;53.654;10.014;2024-03-17T11:34:02;10.50;99.90
46508;DHT22;32223;53.654;10.014;2024-03-17T11:36:35;10.80;99.90
46508;DHT22;32223;53.654;10.014;2024-03-17T11:41:38;10.80;99.90
46508;DHT22;32223;53.654;10.014;2024-03-17T11:44:23;10.90;99.90
46508;DHT22;32223;53.654;10.014;2024-03-17T11:46:58;11.00;99.90
46508;DHT22;32223;53.654;10.014;2024-03-17T11:49:37;11.20;99.90
46508;DHT22;32223;53.654;10.014;2024-03-17T11:52:11;11.40;99.90
46508;DHT22;32223;53.654;10.014;2024-03-17T11:54:40;11.30;99.90
46508;DHT22;32223;53.654;10.014;2024-03-17T11:57:10;11.20;99.90
46508;DHT22;32223;53.654;10.014;2024-03-17T11:59:36;11.10;99.90
46508;DHT22;32223;53.654;10.014;2024-03-17T12:02:30;11.00;99.90
46508;DHT22;32223;53.654;10.014;2024-03-17T12:05:01;11.10;99.90
46508;DHT22;32223;53.654;10.014;2024-03-17T12:07:26;11.20;99.90
46508;DHT22;32223;53.654;10.014;2024-03-17T12:09:54;11.20;99.90
46508;DHT22;32223;53.654;10.014;2024-03-17T12:12:21;11.30;99.90
46508;DHT22;32223;53.654;10.014;2024-03-17T12:14:47;11.50;99.90
46508;DHT22;32223;53.654;10.014;2024-03-17T12:17:20;11.60;99.90
46508;DHT22;32223;53.654;10.014;2024-03-17T12:19:46;12.00;99.90
46508;DHT22;32223;53.654;10.014;2024-03-17T12:22:18;11.90;99.90
46508;DHT22;32223;53.654;10.014;2024-03-17T12:24:51;12.20;99.90
46508;DHT22;32223;53.654;10.014;2024-03-17T12:27:18;12.40;99.70
46508;DHT22;32223;53.654;10.014;2024-03-17T12:29:45;12.20;99.30
46508;DHT22;32223;53.654;10.014;2024-03-17T12:34:39;12.50;99.30
46508;DHT22;32223;53.654;10.014;2024-03-17T12:37:05;13.10;99.20
46508;DHT22;32223;53.654;10.014;2024-03-17T12:39:35;13.60;97.90
46508;DHT22;32223;53.654;10.014;2024-03-17T12:44:38;15.30;92.90
46508;DHT22;32223;53.654;10.014;2024-03-17T12:47:08;16.00;92.30
46508;DHT22;32223;53.654;10.014;2024-03-17T12:49:34;16.20;91.90
46508;DHT22;32223;53.654;10.014;2024-03-17T12:52:00;16.30;90.70
46508;DHT22;32223;53.654;10.014;2024-03-17T12:54:27;16.50;90.40
46508;DHT22;32223;53.654;10.014;2024-03-17T12:57:05;16.50;89.80
46508;DHT22;32223;53.654;10.014;2024-03-17T13:00:22;16.50;87.20
46508;DHT22;32223;53.654;10.014;2024-03-17T13:03:00;16.90;87.20
46508;DHT22;32223;53.654;10.014;2024-03-17T13:05:26;17.30;85.60
46508;DHT22;32223;53.654;10.014;2024-03-17T13:07:53;17.30;82.10
46508;DHT22;32223;53.654;10.014;2024-03-17T13:10:22;17.20;80.30
46508;DHT22;32223;53.654;10.014;2024-03-17T13:12:48;17.10;79.80
46508;DHT22;32223;53.654;10.014;2024-03-17T13:15:23;17.10;80.50
46508;DHT22;32223;53.654;10.014;2024-03-17T13:17:49;17.50;80.60
46508;DHT22;32223;53.654;10.014;2024-03-17T13:20:16;17.60;80.30
46508;DHT22;32223;53.654;10.014;2024-03-17T13:22:43;18.00;80.00
46508;DHT22;32223;53.654;10.014;2024-03-17T13:25:20;18.30;80.70
46508;DHT22;32223;53.654;10.014;2024-03-17T13:27:48;17.90;78.80
46508;DHT22;32223;53.654;10.014;2024-03-17T13:30:15;17.20;79.00
46508;DHT22;32223;53.654;10.014;2024-03-17T13:32:41;17.00;79.20
46508;DHT22;32223;53.654;10.014;2024-03-17T13:35:17;16.30;79.40
46508;DHT22;32223;53.654;10.014;2024-03-17T13:37:45;15.90;81.50
46508;DHT22;32223;53.654;10.014;2024-03-17T13:40:11;16.30;82.30
46508;DHT22;32223;53.654;10.014;2024-03-17T13:42:38;17.30;80.60
46508;DHT22;32223;53.654;10.014;2024-03-17T13:45:05;17.90;79.20
46508;DHT22;32223;53.654;10.014;2024-03-17T13:47:34;18.20;78.50
46508;DHT22;32223;53.654;10.014;2024-03-17T13:50:00;18.20;77.30
46508;DHT22;32223;53.654;10.014;2024-03-17T13:52:25;18.00;77.60
46508;DHT22;32223;53.654;10.014;2024-03-17T13:54:51;18.10;78.70
46508;DHT22;32223;53.654;10.014;2024-03-17T13:57:16;18.00;76.40
46508;DHT22;32223;53.654;10.014;2024-03-17T13:59:42;18.30;76.10
46508;DHT22;32223;53.654;10.014;2024-03-17T14:02:12;18.10;75.80
46508;DHT22;32223;53.654;10.014;2024-03-17T14:04:39;18.20;77.10
46508;DHT22;32223;53.654;10.014;2024-03-17T14:07:04;18.20;76.30
46508;DHT22;32223;53.654;10.014;2024-03-17T14:09:31;18.30;77.30
46508;DHT22;32223;53.654;10.014;2024-03-17T14:11:56;18.80;75.10
46508;DHT22;32223;53.654;10.014;2024-03-17T14:14:23;18.00;75.20
46508;DHT22;32223;53.654;10.014;2024-03-17T14:16:48;16.90;75.80
46508;DHT22;32223;53.654;10.014;2024-03-17T14:19:14;16.20;77.50
46508;DHT22;32223;53.654;10.014;2024-03-17T14:21:39;15.10;80.50
46508;DHT22;32223;53.654;10.014;2024-03-17T14:24:05;14.40;80.00
46508;DHT22;32223;53.654;10.014;2024-03-17T14:26:33;13.40;83.20
46508;DHT22;32223;53.654;10.014;2024-03-17T14:29:03;12.50;83.90
46508;DHT22;32223;53.654;10.014;2024-03-17T14:31:32;11.80;86.10
46508;DHT22;32223;53.654;10.014;2024-03-17T14:33:59;11.50;87.40
46508;DHT22;32223;53.654;10.014;2024-03-17T14:36:25;11.20;88.90
46508;DHT22;32223;53.654;10.014;2024-03-17T14:38:53;11.00;88.90
46508;DHT22;32223;53.654;10.014;2024-03-17T14:41:19;10.90;89.70
46508;DHT22;32223;53.654;10.014;2024-03-17T14:43:45;10.70;90.20
46508;DHT22;32223;53.654;10.014;2024-03-17T14:46:11;10.80;90.70
46508;DHT22;32223;53.654;10.014;2024-03-17T14:48:39;10.80;91.20
46508;DHT22;32223;53.654;10.014;2024-03-17T14:51:05;11.30;91.20
46508;DHT22;32223;53.654;10.014;2024-03-17T14:53:30;11.80;89.20
46508;DHT22;32223;53.654;10.014;2024-03-17T14:55:56;12.10;89.20
46508;DHT22;32223;53.654;10.014;2024-03-17T14:58:21;12.20;88.90
46508;DHT22;32223;53.654;10.014;2024-03-17T15:00:47;12.50;89.40
46508;DHT22;32223;53.654;10.014;2024-03-17T15:03:13;12.60;88.10
46508;DHT22;32223;53.654;10.014;2024-03-17T15:05:39;12.70;87.70
46508;DHT22;32223;53.654;10.014;2024-03-17T15:08:05;12.70;87.20
46508;DHT22;32223;53.654;10.014;2024-03-17T15:10:31;12.50;87.70
46508;DHT22;32223;53.654;10.014;2024-03-17T15:12:56;12.10;88.70
46508;DHT22;32223;53.654;10.014;2024-03-17T15:15:22;11.80;88.80
46508;DHT22;32223;53.654;10.014;2024-03-17T15:17:47;11.90;88.60
46508;DHT22;32223;53.654;10.014;2024-03-17T15:20:16;11.90;87.60
46508;DHT22;32223;53.654;10.014;2024-03-17T15:22:46;12.10;87.90
46508;DHT22;32223;53.654;10.014;2024-03-17T15:25:15;12.20;87.70
46508;DHT22;32223;53.654;10.014;2024-03-17T15:27:41;12.70;86.80
46508;DHT22;32223;53.654;10.014;2024-03-17T15:30:11;12.70;86.30
46508;DHT22;32223;53.654;10.014;2024-03-17T15:32:36;12.80;86.70
46508;DHT22;32223;53.654;10.014;2024-03-17T15:35:03;12.70;87.70
46508;DHT22;32223;53.654;10.014;2024-03-17T15:37:28;12.50;86.60
46508;DHT22;32223;53.654;10.014;2024-03-17T15:39:54;12.40;86.90
46508;DHT22;32223;53.654;10.014;2024-03-17T15:42:21;12.20;86.50
46508;DHT22;32223;53.654;10.014;2024-03-17T15:44:49;11.90;87.30
46508;DHT22;32223;53.654;10.014;2024-03-17T15:47:16;11.70;88.40